createdAt,value
2018-03-25T00:00:56.560Z,378.83
2018-03-25T00:03:24.165Z,163.60
2018-03-25T00:05:51.777Z,145.73
2018-03-25T00:08:19.395Z,460.33
2018-03-25T00:10:46.996Z,692.43
2018-03-25T00:13:14.604Z,935.20
2018-03-25T00:15:42.215Z,414.00
2018-03-25T00:18:09.820Z,186.27
2018-03-25T00:20:37.431Z,461.63
2018-03-25T00:23:05.099Z,740.53
2018-03-25T00:25:33.468Z,169.73
2018-03-25T00:28:01.847Z,347.80
2018-03-25T00:30:30.231Z,147.13
2018-03-25T00:32:57.860Z,175.97
2018-03-25T00:35:25.461Z,1408.33
2018-03-25T00:37:53.128Z,138.00
2018-03-25T00:40:20.729Z,144.33
2018-03-25T00:42:48.331Z,1002.60
2018-03-25T00:45:15.959Z,709.37
2018-03-25T00:47:43.571Z,344.57
2018-03-25T00:50:11.183Z,188.63
2018-03-25T00:52:38.833Z,1059.47
2018-03-25T00:55:06.440Z,742.63
2018-03-25T00:57:34.048Z,322.87
2018-03-25T01:00:01.674Z,183.93
2018-03-25T01:02:29.283Z,734.87
2018-03-25T01:04:56.887Z,761.43
2018-03-25T01:07:24.532Z,177.23
2018-03-25T01:09:52.903Z,788.90
2018-03-25T01:12:21.284Z,1119.97
2018-03-25T01:14:49.669Z,1997.83
2018-03-25T01:17:18.063Z,1771.67
2018-03-25T01:19:45.683Z,1096.03
2018-03-25T01:22:13.305Z,162.87
2018-03-25T01:24:40.916Z,1572.17
2018-03-25T01:27:08.533Z,304.90
2018-03-25T01:29:36.176Z,1269.83
2018-03-25T01:32:03.797Z,1609.27
2018-03-25T01:34:32.174Z,1874.00
2018-03-25T01:36:59.790Z,973.40
2018-03-25T01:39:27.392Z,209.53
2018-03-25T01:41:54.999Z,1718.37
2018-03-25T01:44:22.619Z,1517.27
2018-03-25T01:46:50.244Z,1618.90
2018-03-25T01:49:17.847Z,1386.37
2018-03-25T01:51:46.231Z,1139.53
2018-03-25T01:54:13.839Z,1816.73
2018-03-25T01:56:41.440Z,707.10
2018-03-25T01:59:09.093Z,1997.07
2018-03-25T02:01:36.702Z,1310.27
2018-03-25T02:04:04.308Z,379.23
2018-03-25T02:06:31.927Z,863.97
2018-03-25T02:08:59.534Z,1325.53
2018-03-25T02:11:27.140Z,148.13
2018-03-25T02:13:54.795Z,167.30
2018-03-25T02:16:22.406Z,1481.37
2018-03-25T02:18:50.013Z,141.27
2018-03-25T02:21:17.664Z,1144.77
2018-03-25T02:23:45.296Z,196.87
2018-03-25T02:26:12.904Z,1466.87
2018-03-25T02:28:40.521Z,1999.90
2018-03-25T02:31:08.140Z,1982.93
2018-03-25T02:33:35.753Z,438.77
2018-03-25T02:36:04.160Z,586.97
2018-03-25T02:38:31.772Z,1137.20
2018-03-25T02:40:59.380Z,1380.90
2018-03-25T02:43:26.996Z,746.63
2018-03-25T02:45:54.609Z,1357.63
2018-03-25T02:48:22.225Z,1389.10
2018-03-25T02:50:50.607Z,1248.97
2018-03-25T02:53:18.971Z,666.60
2018-03-25T02:55:46.592Z,178.07
2018-03-25T02:58:14.221Z,1083.40
2018-03-25T03:00:41.870Z,1593.17
2018-03-25T03:03:09.480Z,218.63
2018-03-25T03:05:37.100Z,1033.33
2018-03-25T03:08:05.470Z,174.05
2018-03-25T03:10:33.073Z,161.03
2018-03-25T03:13:00.683Z,413.10
2018-03-25T03:15:28.296Z,415.57
2018-03-25T03:17:55.904Z,1126.70
2018-03-25T03:20:24.312Z,812.20
2018-03-25T03:22:51.931Z,161.60
2018-03-25T03:25:19.528Z,141.57
2018-03-25T03:27:47.135Z,138.00
2018-03-25T03:30:14.743Z,112.77
2018-03-25T03:32:42.351Z,115.97
2018-03-25T03:35:09.997Z,110.83
2018-03-25T03:37:37.607Z,325.00
2018-03-25T03:40:05.220Z,784.80
2018-03-25T03:42:32.858Z,783.87
2018-03-25T03:45:00.470Z,149.33
2018-03-25T03:47:28.076Z,1145.63
2018-03-25T03:49:55.716Z,476.87
2018-03-25T03:52:24.079Z,303.43
2018-03-25T03:54:51.688Z,1314.80
2018-03-25T03:57:19.308Z,220.70
2018-03-25T03:59:47.679Z,143.87
2018-03-25T04:02:15.288Z,219.50
2018-03-25T04:04:42.936Z,141.70
2018-03-25T04:07:10.535Z,143.47
2018-03-25T04:09:38.135Z,123.50
2018-03-25T04:12:06.525Z,367.83
2018-03-25T04:14:34.804Z,885.80
2018-03-25T04:17:02.407Z,104.93
2018-03-25T04:19:30.047Z,587.33
2018-03-25T04:21:57.655Z,869.30
2018-03-25T04:24:25.264Z,752.73
2018-03-25T04:26:52.919Z,464.47
2018-03-25T04:29:20.524Z,126.00
2018-03-25T04:31:48.136Z,127.03
2018-03-25T04:34:15.756Z,101.07
2018-03-25T04:36:43.488Z,118.93
2018-03-25T04:39:11.109Z,366.90
2018-03-25T04:41:38.791Z,122.17
2018-03-25T04:44:06.395Z,391.23
2018-03-25T04:46:34.012Z,118.53
2018-03-25T04:49:01.624Z,213.73
2018-03-25T04:51:29.243Z,75.43
2018-03-25T04:53:56.846Z,275.03
2018-03-25T04:56:24.481Z,494.20
2018-03-25T04:58:52.087Z,765.93
2018-03-25T05:01:19.689Z,513.57
2018-03-25T05:03:47.317Z,157.20
2018-03-25T05:06:14.919Z,545.43
2018-03-25T05:08:42.521Z,147.70
2018-03-25T05:11:10.164Z,524.10
2018-03-25T05:13:37.768Z,118.97
2018-03-25T05:16:05.372Z,113.60
2018-03-25T05:18:33.801Z,237.57
2018-03-25T05:21:01.413Z,565.20
2018-03-25T05:23:29.019Z,96.43
2018-03-25T05:25:56.646Z,100.77
2018-03-25T05:28:24.260Z,117.03
2018-03-25T05:30:51.880Z,493.30
2018-03-25T05:33:20.268Z,97.47
2018-03-25T05:35:48.639Z,185.27
2018-03-25T05:38:17.011Z,77.40
2018-03-25T05:40:45.395Z,262.17
2018-03-25T05:43:13.788Z,261.50
2018-03-25T05:45:41.392Z,234.97
2018-03-25T05:48:09.028Z,421.45
2018-03-25T05:50:36.627Z,77.80
2018-03-25T05:53:04.235Z,269.73
2018-03-25T05:55:31.856Z,58.80
2018-03-25T05:57:59.464Z,203.77
2018-03-25T06:00:27.067Z,162.70
2018-03-25T06:02:54.699Z,80.57
2018-03-25T06:05:22.309Z,261.20
2018-03-25T06:07:49.925Z,371.07
2018-03-25T06:10:17.535Z,420.73
2018-03-25T06:12:45.895Z,97.80
2018-03-25T06:15:13.495Z,662.10
2018-03-25T06:17:41.105Z,84.80
2018-03-25T06:20:08.716Z,262.10
2018-03-25T06:22:36.321Z,65.27
2018-03-25T06:25:03.947Z,69.47
2018-03-25T06:27:31.547Z,48.70
2018-03-25T06:29:59.154Z,317.37
2018-03-25T06:32:27.532Z,94.47
2018-03-25T06:34:55.129Z,50.93
2018-03-25T06:37:22.726Z,53.70
2018-03-25T06:39:51.104Z,74.93
2018-03-25T06:42:19.471Z,65.83
2018-03-25T06:44:47.076Z,86.87
2018-03-25T06:47:14.696Z,52.67
2018-03-25T06:49:42.300Z,91.00
2018-03-25T06:52:09.899Z,90.23
2018-03-25T06:54:37.515Z,66.03
2018-03-25T06:57:05.124Z,47.60
2018-03-25T06:59:32.734Z,43.40
2018-03-25T07:02:00.367Z,71.07
2018-03-25T07:04:28.742Z,63.07
2018-03-25T07:06:56.339Z,82.30
2018-03-25T07:09:23.956Z,43.70
2018-03-25T07:11:51.564Z,46.17
2018-03-25T07:14:19.175Z,45.10
2018-03-25T07:16:47.567Z,49.90
2018-03-25T07:19:15.938Z,69.03
2018-03-25T07:21:43.557Z,47.93
2018-03-25T07:24:11.169Z,51.17
2018-03-25T07:26:39.534Z,44.80
2018-03-25T07:29:07.144Z,46.83
2018-03-25T07:31:34.781Z,43.60
2018-03-25T07:34:03.144Z,81.20
2018-03-25T07:36:31.530Z,48.10
2018-03-25T07:38:59.911Z,45.43
2018-03-25T07:41:28.293Z,41.87
2018-03-25T07:43:55.912Z,44.07
2018-03-25T07:46:23.522Z,43.40
2018-03-25T07:48:51.120Z,45.47
2018-03-25T07:51:18.728Z,40.43
2018-03-25T07:53:47.124Z,61.03
2018-03-25T07:56:14.724Z,48.47
2018-03-25T07:58:42.327Z,47.97
2018-03-25T08:01:10.728Z,38.63
2018-03-25T08:03:38.333Z,44.83
2018-03-25T08:06:05.960Z,53.73
2018-03-25T08:08:33.599Z,47.47
2018-03-25T08:11:01.207Z,43.47
2018-03-25T08:13:28.820Z,41.30
2018-03-25T08:15:56.452Z,53.30
2018-03-25T08:18:24.052Z,41.87
2018-03-25T08:20:52.436Z,39.43
2018-03-25T08:23:20.836Z,38.03
2018-03-25T08:25:48.436Z,56.93
2018-03-25T08:28:16.047Z,47.83
2018-03-25T08:30:44.425Z,42.40
2018-03-25T08:33:12.068Z,48.97
2018-03-25T08:35:39.672Z,49.00
2018-03-25T08:38:07.280Z,44.00
2018-03-25T08:40:34.916Z,40.50
2018-03-25T08:43:03.331Z,55.77
2018-03-25T08:45:31.703Z,67.33
2018-03-25T08:47:59.316Z,52.43
2018-03-25T08:50:26.940Z,46.07
2018-03-25T08:52:54.566Z,66.10
2018-03-25T08:55:22.166Z,47.23
2018-03-25T08:57:49.759Z,60.83
2018-03-25T09:00:17.379Z,79.23
2018-03-25T09:02:44.984Z,65.90
2018-03-25T09:05:12.592Z,59.37
2018-03-25T09:07:40.210Z,59.63
2018-03-25T09:10:07.815Z,50.30
2018-03-25T09:12:35.434Z,61.00
2018-03-25T09:15:03.063Z,43.90
2018-03-25T09:17:30.701Z,36.30
2018-03-25T09:19:58.303Z,37.93
2018-03-25T09:22:25.912Z,36.77
2018-03-25T09:24:53.527Z,46.30
2018-03-25T09:27:21.139Z,39.83
2018-03-25T09:29:48.770Z,43.00
2018-03-25T09:32:16.398Z,37.30
2018-03-25T09:34:44.012Z,50.47
2018-03-25T09:37:11.635Z,41.23
2018-03-25T09:39:40.007Z,42.67
2018-03-25T09:42:07.614Z,32.20
2018-03-25T09:44:35.228Z,43.23
2018-03-25T09:47:02.834Z,39.30
2018-03-25T09:49:30.440Z,40.17
2018-03-25T09:51:58.051Z,42.30
2018-03-25T09:54:25.665Z,33.57
2018-03-25T09:56:53.291Z,47.00
2018-03-25T09:59:20.902Z,40.93
2018-03-25T10:01:53.111Z,36.20
2018-03-25T10:04:20.778Z,27.87
2018-03-25T10:06:48.379Z,30.57
2018-03-25T10:09:15.976Z,27.37
2018-03-25T10:11:43.604Z,43.83
2018-03-25T10:14:11.222Z,35.37
2018-03-25T10:16:38.824Z,26.60
2018-03-25T10:19:06.456Z,27.77
2018-03-25T10:21:34.072Z,28.37
2018-03-25T10:24:02.440Z,39.23
2018-03-25T10:26:30.080Z,13.77
2018-03-25T10:28:57.696Z,18.97
2018-03-25T10:31:25.296Z,20.37
2018-03-25T10:33:53.630Z,25.83
2018-03-25T10:36:21.231Z,20.33
2018-03-25T10:38:48.822Z,23.10
2018-03-25T10:41:17.205Z,20.40
2018-03-25T10:43:45.578Z,21.13
2018-03-25T10:46:13.940Z,22.13
2018-03-25T10:48:42.320Z,20.37
2018-03-25T10:51:10.939Z,22.57
2018-03-25T10:53:38.328Z,23.77
2018-03-25T10:56:05.958Z,21.53
2018-03-25T10:58:33.556Z,20.60
2018-03-25T11:01:01.156Z,21.93
2018-03-25T11:03:29.736Z,17.70
2018-03-25T11:05:57.361Z,19.77
2018-03-25T11:08:24.957Z,18.10
2018-03-25T11:10:53.340Z,18.43
2018-03-25T11:13:20.939Z,25.90
2018-03-25T11:15:48.544Z,29.70
2018-03-25T11:18:16.940Z,25.00
2018-03-25T11:20:44.536Z,33.20
2018-03-25T11:23:12.144Z,35.03
2018-03-25T11:25:40.560Z,38.27
2018-03-25T11:28:08.160Z,34.90
2018-03-25T11:30:36.365Z,41.00
2018-03-25T11:33:03.981Z,38.63
2018-03-25T11:35:31.591Z,42.60
2018-03-25T11:37:59.196Z,39.00
2018-03-25T11:40:26.852Z,37.60
2018-03-25T11:42:54.459Z,46.13
2018-03-25T11:45:22.832Z,41.80
2018-03-25T11:47:50.455Z,51.60
2018-03-25T11:50:18.060Z,40.40
2018-03-25T11:52:46.450Z,40.17
2018-03-25T11:55:14.127Z,41.83
2018-03-25T11:57:41.736Z,37.80
2018-03-25T12:00:09.343Z,43.23
2018-03-25T12:02:36.979Z,54.33
2018-03-25T12:05:05.340Z,44.17
2018-03-25T12:07:32.940Z,46.17
2018-03-25T12:10:00.561Z,42.13
2018-03-25T12:12:28.164Z,45.07
2018-03-25T12:14:55.795Z,51.83
2018-03-25T12:17:23.409Z,50.80
2018-03-25T12:19:51.020Z,42.27
2018-03-25T12:22:19.391Z,44.23
2018-03-25T12:24:47.004Z,43.70
2018-03-25T12:27:14.616Z,49.63
2018-03-25T12:29:42.223Z,44.43
2018-03-25T12:32:09.868Z,43.70
2018-03-25T12:34:37.476Z,44.73
2018-03-25T12:37:05.088Z,49.60
2018-03-25T12:39:32.724Z,43.83
2018-03-25T12:42:00.350Z,43.90
2018-03-25T12:44:27.972Z,43.83
2018-03-25T12:46:55.583Z,36.10
2018-03-25T12:49:23.191Z,39.67
2018-03-25T12:51:50.803Z,31.50
2018-03-25T12:54:18.415Z,35.90
2018-03-25T12:56:46.020Z,28.73
2018-03-25T12:59:13.632Z,32.63
2018-03-25T13:01:41.308Z,42.50
2018-03-25T13:04:09.653Z,38.43
2018-03-25T13:06:38.026Z,47.73
2018-03-25T13:09:06.454Z,28.83
2018-03-25T13:11:34.046Z,26.27
2018-03-25T13:14:01.644Z,36.80
2018-03-25T13:16:29.272Z,29.63
2018-03-25T13:18:57.904Z,30.40
2018-03-25T13:21:25.510Z,23.00
2018-03-25T13:23:53.123Z,23.70
2018-03-25T13:26:20.740Z,19.73
2018-03-25T13:28:49.108Z,21.07
2018-03-25T13:31:16.721Z,16.30
2018-03-25T13:33:44.327Z,17.67
2018-03-25T13:36:11.928Z,22.90
2018-03-25T13:38:39.559Z,22.20
2018-03-25T13:41:07.991Z,23.07
2018-03-25T13:43:35.589Z,25.57
2018-03-25T13:46:03.215Z,23.83
2018-03-25T13:48:30.812Z,18.47
2018-03-25T13:50:58.424Z,42.03
2018-03-25T13:53:26.068Z,30.10
2018-03-25T13:55:53.668Z,16.60
2018-03-25T13:58:21.268Z,22.73
2018-03-25T14:00:48.880Z,40.30
2018-03-25T14:03:16.479Z,41.50
2018-03-25T14:05:44.127Z,44.40
2018-03-25T14:08:11.739Z,46.10
2018-03-25T14:10:39.339Z,40.10
2018-03-25T14:13:06.947Z,48.67
2018-03-25T14:15:34.606Z,30.97
2018-03-25T14:18:02.247Z,30.10
2018-03-25T14:20:30.612Z,38.13
2018-03-25T14:22:58.234Z,49.90
2018-03-25T14:25:25.832Z,27.97
2018-03-25T14:27:53.435Z,25.90
2018-03-25T14:30:21.068Z,34.87
2018-03-25T14:32:49.432Z,32.83
2018-03-25T14:35:17.055Z,32.67
2018-03-25T14:37:44.676Z,44.30
2018-03-25T14:40:13.040Z,30.43
2018-03-25T14:42:41.450Z,36.60
2018-03-25T14:45:09.100Z,34.80
2018-03-25T14:47:36.762Z,55.00
2018-03-25T14:50:04.882Z,53.43
2018-03-25T14:52:32.528Z,43.10
2018-03-25T14:55:00.132Z,52.63
2018-03-25T14:57:27.745Z,55.40
2018-03-25T14:59:55.400Z,40.80
2018-03-25T15:02:23.036Z,71.07
2018-03-25T15:04:50.640Z,57.23
2018-03-25T15:07:18.292Z,49.80
2018-03-25T15:09:45.909Z,71.57
2018-03-25T15:12:14.287Z,105.43
2018-03-25T15:14:42.696Z,61.17
2018-03-25T15:17:10.307Z,68.37
2018-03-25T15:19:37.962Z,99.53
2018-03-25T15:22:05.636Z,52.37
2018-03-25T15:24:33.236Z,90.37
2018-03-25T15:27:00.849Z,55.60
2018-03-25T15:29:28.494Z,75.47
2018-03-25T15:31:56.102Z,101.03
2018-03-25T15:34:24.480Z,92.60
2018-03-25T15:36:52.123Z,97.80
2018-03-25T15:39:20.556Z,109.07
2018-03-25T15:41:48.164Z,50.30
2018-03-25T15:44:16.595Z,54.97
2018-03-25T15:46:44.212Z,107.63
2018-03-25T15:49:12.588Z,93.90
2018-03-25T15:51:41.015Z,64.50
2018-03-25T15:54:08.636Z,49.97
2018-03-25T15:56:36.253Z,135.43
2018-03-25T15:59:03.929Z,104.97
2018-03-25T16:01:31.583Z,74.40
2018-03-25T16:03:59.187Z,56.53
2018-03-25T16:06:26.809Z,198.03
2018-03-25T16:08:54.415Z,133.00
2018-03-25T16:11:22.027Z,53.73
2018-03-25T16:13:49.665Z,59.27
2018-03-25T16:16:17.268Z,124.23
2018-03-25T16:18:45.633Z,65.57
2018-03-25T16:21:13.258Z,73.20
2018-03-25T16:23:41.369Z,56.13
2018-03-25T16:26:09.008Z,149.20
2018-03-25T16:28:37.437Z,156.20
2018-03-25T16:31:05.057Z,212.67
2018-03-25T16:33:32.675Z,189.63
2018-03-25T16:36:00.296Z,137.60
2018-03-25T16:38:27.911Z,240.17
2018-03-25T16:40:56.651Z,99.03
2018-03-25T16:43:25.040Z,202.30
2018-03-25T16:45:53.454Z,235.47
2018-03-25T16:48:21.060Z,261.23
2018-03-25T16:50:49.464Z,99.27
2018-03-25T16:53:17.076Z,236.57
2018-03-25T16:55:44.697Z,133.25
2018-03-25T16:58:12.312Z,67.03
2018-03-25T17:00:40.688Z,71.87
2018-03-25T17:03:08.304Z,150.33
2018-03-25T17:05:35.920Z,201.97
2018-03-25T17:08:04.292Z,117.07
2018-03-25T17:10:31.892Z,47.53
2018-03-25T17:12:59.507Z,44.90
2018-03-25T17:15:27.105Z,65.37
2018-03-25T17:17:54.707Z,185.80
2018-03-25T17:20:22.343Z,161.97
2018-03-25T17:22:49.943Z,103.23
2018-03-25T17:25:17.555Z,126.30
2018-03-25T17:27:45.167Z,149.03
2018-03-25T17:30:12.772Z,50.80
2018-03-25T17:32:40.380Z,241.10
2018-03-25T17:35:07.998Z,157.93
2018-03-25T17:37:35.599Z,296.27
2018-03-25T17:40:03.210Z,58.03
2018-03-25T17:42:30.839Z,47.80
2018-03-25T17:44:58.446Z,363.20
2018-03-25T17:47:26.056Z,55.20
2018-03-25T17:49:53.701Z,322.00
2018-03-25T17:52:21.308Z,363.57
2018-03-25T17:54:48.915Z,407.10
2018-03-25T17:57:16.546Z,176.83
2018-03-25T17:59:44.159Z,346.17
2018-03-25T18:02:11.774Z,183.93
2018-03-25T18:04:39.388Z,103.03
2018-03-25T18:07:07.000Z,269.03
2018-03-25T18:09:34.604Z,103.20
2018-03-25T18:12:02.224Z,269.47
2018-03-25T18:14:29.824Z,88.27
2018-03-25T18:16:58.207Z,82.90
2018-03-25T18:19:26.588Z,89.30
2018-03-25T18:21:54.191Z,75.07
2018-03-25T18:24:21.854Z,332.23
2018-03-25T18:26:49.491Z,146.50
2018-03-25T18:29:17.115Z,133.93
2018-03-25T18:31:44.719Z,252.67
2018-03-25T18:34:12.336Z,170.67
2018-03-25T18:36:39.991Z,307.23
2018-03-25T18:39:07.628Z,170.80
2018-03-25T18:41:35.236Z,375.43
2018-03-25T18:44:03.719Z,335.90
2018-03-25T18:46:31.341Z,342.10
2018-03-25T18:48:58.956Z,154.70
2018-03-25T18:51:26.619Z,91.83
2018-03-25T18:53:54.311Z,260.40
2018-03-25T18:56:21.984Z,293.77
2018-03-25T18:58:49.607Z,288.50
2018-03-25T19:01:17.293Z,369.23
2018-03-25T19:03:44.967Z,319.27
2018-03-25T19:06:12.591Z,313.63
2018-03-25T19:08:40.238Z,416.03
2018-03-25T19:11:08.655Z,233.70
2018-03-25T19:13:36.351Z,152.33
2018-03-25T19:16:03.990Z,417.50
2018-03-25T19:18:31.613Z,490.93
2018-03-25T19:20:59.233Z,124.80
2018-03-25T19:23:26.867Z,90.27
2018-03-25T19:25:54.540Z,337.27
2018-03-25T19:28:22.144Z,377.57
2018-03-25T19:30:49.759Z,272.77
2018-03-25T19:33:17.380Z,116.40
2018-03-25T19:35:45.044Z,84.23
2018-03-25T19:38:12.705Z,384.67
2018-03-25T19:40:40.451Z,386.70
2018-03-25T19:43:08.064Z,211.80
2018-03-25T19:45:35.727Z,213.67
2018-03-25T19:48:03.401Z,99.90
2018-03-25T19:50:31.043Z,61.97
2018-03-25T19:52:58.698Z,469.07
2018-03-25T19:55:26.381Z,311.90
2018-03-25T19:57:54.012Z,87.60
2018-03-25T20:00:21.615Z,67.87
2018-03-25T20:02:49.268Z,225.93
2018-03-25T20:05:16.874Z,385.03
2018-03-25T20:07:44.500Z,378.43
2018-03-25T20:10:12.140Z,58.57
2018-03-25T20:12:39.777Z,109.00
2018-03-25T20:15:07.440Z,68.37
2018-03-25T20:17:35.164Z,361.50
2018-03-25T20:20:03.593Z,635.83
2018-03-25T20:22:31.237Z,452.40
2018-03-25T20:24:59.622Z,187.53
2018-03-25T20:27:27.279Z,154.47
2018-03-25T20:29:54.916Z,98.80
2018-03-25T20:32:22.625Z,375.87
2018-03-25T20:34:50.233Z,314.30
2018-03-25T20:37:17.884Z,490.60
2018-03-25T20:39:46.267Z,178.10
2018-03-25T20:42:14.645Z,370.40
2018-03-25T20:44:43.011Z,230.93
2018-03-25T20:47:11.395Z,380.30
2018-03-25T20:49:39.012Z,177.03
2018-03-25T20:52:06.620Z,75.87
2018-03-25T20:54:35.008Z,74.33
2018-03-25T20:57:02.628Z,70.40
2018-03-25T20:59:30.244Z,534.40
2018-03-25T21:01:57.889Z,131.33
2018-03-25T21:04:25.496Z,94.30
2018-03-25T21:06:53.112Z,361.10
2018-03-25T21:09:20.755Z,307.00
2018-03-25T21:11:48.363Z,198.33
2018-03-25T21:14:16.745Z,647.87
2018-03-25T21:16:44.366Z,209.80
2018-03-25T21:19:11.973Z,509.90
2018-03-25T21:21:39.584Z,548.43
2018-03-25T21:24:07.227Z,564.63
2018-03-25T21:26:35.603Z,451.97
2018-03-25T21:29:02.728Z,111.80
2018-03-25T21:31:30.380Z,135.13
2018-03-25T21:33:57.990Z,428.00
2018-03-25T21:36:26.355Z,386.53
2018-03-25T21:38:54.736Z,379.43
2018-03-25T21:41:23.112Z,295.50
2018-03-25T21:43:51.480Z,259.83
2018-03-25T21:46:19.115Z,497.07
2018-03-25T21:48:46.716Z,94.90
2018-03-25T21:51:15.087Z,76.30
2018-03-25T21:53:43.473Z,98.37
2018-03-25T21:56:11.840Z,50.47
2018-03-25T21:58:39.450Z,284.00
2018-03-25T22:01:07.095Z,75.77
2018-03-25T22:03:34.692Z,110.43
2018-03-25T22:06:02.304Z,56.40
2018-03-25T22:08:30.680Z,93.17
2018-03-25T22:10:59.064Z,100.30
2018-03-25T22:13:26.665Z,143.17
2018-03-25T22:15:54.296Z,57.93
2018-03-25T22:18:30.723Z,44.23
2018-03-25T22:20:58.371Z,132.33
2018-03-25T22:23:25.976Z,77.40
2018-03-25T22:25:53.578Z,50.27
2018-03-25T22:28:21.207Z,94.83
2018-03-25T22:30:48.812Z,144.03
2018-03-25T22:33:16.433Z,52.70
2018-03-25T22:35:44.047Z,54.17
2018-03-25T22:38:11.675Z,111.93
2018-03-25T22:40:39.315Z,50.90
2018-03-25T22:43:06.928Z,86.43
2018-03-25T22:45:34.536Z,133.67
2018-03-25T22:48:02.166Z,50.10
2018-03-25T22:50:30.547Z,85.50
2018-03-25T22:52:58.924Z,48.27
2018-03-25T22:55:27.289Z,74.60
2018-03-25T22:57:55.684Z,54.50
2018-03-25T23:00:23.283Z,82.47
2018-03-25T23:02:50.880Z,38.63
2018-03-25T23:05:18.498Z,75.23
2018-03-25T23:07:46.095Z,42.47
2018-03-25T23:10:13.704Z,34.03
2018-03-25T23:12:41.315Z,39.50
2018-03-25T23:15:08.918Z,39.70
2018-03-25T23:17:36.546Z,39.53
2018-03-25T23:20:04.931Z,46.70
2018-03-25T23:22:32.544Z,48.03
2018-03-25T23:25:00.143Z,55.83
2018-03-25T23:27:27.758Z,34.27
2018-03-25T23:29:55.370Z,35.37
2018-03-25T23:32:23.744Z,34.20
2018-03-25T23:34:51.358Z,42.07
2018-03-25T23:37:18.969Z,40.47
2018-03-25T23:39:47.331Z,31.53
2018-03-25T23:42:14.935Z,27.60
2018-03-25T23:44:42.542Z,23.90
2018-03-25T23:47:10.148Z,22.40
2018-03-25T23:49:37.767Z,18.47
2018-03-25T23:52:05.375Z,20.90
2018-03-25T23:54:32.993Z,20.70
2018-03-25T23:57:00.632Z,17.00
2018-03-25T23:59:28.227Z,17.50
